This is the latest recevied weather packets stored in our database for station/object DL2GFH-3. If no packets are shown the sender has not sent any weather packets the latest 10 day(s).
| Time | Temp. | Humidity | Pressure | Rain* | Wind** | Luminosity | Snow |
|---|---|---|---|---|---|---|---|
| 1777707868 | 26.11° C | 18% | 1022.3 hPa | - | - | - | - |
| 1777706057 | 25° C | 19% | 1022.4 hPa | - | - | - | - |
| 1777705152 | 23.89° C | 20% | 1022.5 hPa | - | - | - | - |
| 1777704246 | 23.89° C | 20% | 1022.5 hPa | - | - | - | - |
| 1777703341 | 21.67° C | 23% | 1022.7 hPa | - | - | - | - |
| 1777702435 | 21.11° C | 23% | 1022.7 hPa | - | - | - | - |
| 1777701530 | 20.56° C | 24% | 1022.7 hPa | - | - | - | - |
| 1777700624 | 18.89° C | 25% | 1022.9 hPa | - | - | - | - |
| 1777699719 | 18.33° C | 26% | 1022.9 hPa | - | - | - | - |
| 1777698814 | 17.78° C | 26% | 1022.9 hPa | - | - | - | - |
| 1777697908 | 17.22° C | 27% | 1022.8 hPa | - | - | - | - |
| 1777697003 | 17.78° C | 26% | 1022.8 hPa | - | - | - | - |
| 1777696097 | 18.89° C | 25% | 1022.7 hPa | - | - | - | - |
| 1777695192 | 20° C | 23% | 1022.7 hPa | - | - | - | - |
| 1777694287 | 21.67° C | 21% | 1022.6 hPa | - | - | - | - |
| 1777693381 | 20° C | 24% | 1022.6 hPa | - | - | - | - |
| 1777692476 | 15.56° C | 29% | 1022.8 hPa | - | - | - | - |
| 1777691570 | 15.56° C | 29% | 1022.9 hPa | - | - | - | - |
| 1777690665 | 15.56° C | 29% | 1023 hPa | - | - | - | - |
| 1777689759 | 15.56° C | 29% | 1022.9 hPa | - | - | - | - |
| 1777688854 | 16.11° C | 29% | 1023 hPa | - | - | - | - |
| 1777687949 | 16.11° C | 29% | 1023 hPa | - | - | - | - |
| 1777687043 | 16.11° C | 29% | 1023 hPa | - | - | - | - |
| 1777686138 | 16.11° C | 29% | 1023.1 hPa | - | - | - | - |
| 1777685232 | 16.67° C | 29% | 1023.2 hPa | - | - | - | - |
* Rain since midnight (hover to see other rain measurements)
** Current wind speed in m/s (hover to see current wind gust speed)